Time;durP1;ratioP1;P1;durP2;ratioP2;P2;SDS_P1;SDS_P2;PMS_P1;PMS_P2;Temp;Humidity;BMP_temperature;BMP_pressure;BME280_temperature;BME280_humidity;BME280_pressure;Samples;Min_cycle;Max_cycle;Signal;HPM_P1;HPM_P2
2021/08/03 00:05:19;;;;;;;5.88;2.20;;;14.90;99.90;;;;;;12529467;28;20562;-85
2021/08/03 00:11:23;;;;;;;5.43;2.40;;;14.70;99.90;;;;;;12532212;28;20099;-84
2021/08/03 00:17:26;;;;;;;4.57;2.57;;;15.00;99.90;;;;;;12528083;28;20045;-84
2021/08/03 00:23:28;;;;;;;5.75;2.15;;;15.00;99.90;;;;;;12523390;28;20057;-84
2021/08/03 00:29:30;;;;;;;5.55;2.20;;;14.70;99.90;;;;;;12523474;28;20053;-84
2021/08/03 00:35:32;;;;;;;5.30;2.20;;;14.60;99.90;;;;;;12525692;28;20496;-84
2021/08/03 00:41:54;;;;;;;7.50;2.60;;;14.50;99.90;;;;;;12531146;28;20049;-84
2021/08/03 00:47:56;;;;;;;4.72;2.60;;;14.40;99.90;;;;;;12525127;28;20041;-84
2021/08/03 00:53:58;;;;;;;4.60;2.33;;;14.30;99.90;;;;;;12527704;28;20062;-84
2021/08/03 01:00:00;;;;;;;9.13;2.25;;;14.20;99.90;;;;;;12532561;28;20394;-84
2021/08/03 01:06:20;;;;;;;6.30;2.35;;;14.00;99.90;;;;;;12526518;28;20140;-84
2021/08/03 01:12:36;;;;;;;9.50;2.83;;;13.90;99.90;;;;;;12545816;28;20040;-84
2021/08/03 01:19:05;;;;;;;5.22;2.47;;;13.70;99.90;;;;;;12523517;28;20052;-84
2021/08/03 01:25:26;;;;;;;8.90;2.67;;;13.60;99.90;;;;;;12528763;28;20540;-84
2021/08/03 01:31:36;;;;;;;4.28;2.40;;;13.70;99.90;;;;;;12524823;28;20109;-84
2021/08/03 01:37:39;;;;;;;6.38;2.10;;;13.90;99.90;;;;;;12545449;28;20048;-84
2021/08/03 01:43:41;;;;;;;5.22;1.73;;;14.00;99.90;;;;;;12527686;28;20543;-84
2021/08/03 01:49:45;;;;;;;7.72;2.42;;;13.90;99.90;;;;;;12518604;28;20056;-84
2021/08/03 01:55:47;;;;;;;6.22;2.45;;;13.90;99.90;;;;;;12519914;28;20130;-84
2021/08/03 02:01:52;;;;;;;4.28;2.25;;;14.10;99.90;;;;;;12528291;28;20496;-84
2021/08/03 02:07:54;;;;;;;3.85;2.03;;;14.20;99.90;;;;;;12520850;28;20053;-84
2021/08/03 02:13:57;;;;;;;7.65;2.17;;;14.10;99.90;;;;;;12556553;28;20092;-84
2021/08/03 02:20:01;;;;;;;7.78;2.03;;;14.00;99.90;;;;;;12571771;28;20525;-86
2021/08/03 02:26:02;;;;;;;8.93;2.05;;;13.90;99.90;;;;;;12474809;28;20110;-83
2021/08/03 02:32:17;;;;;;;8.30;2.80;;;13.80;99.90;;;;;;12490526;28;20086;-83
2021/08/03 02:38:23;;;;;;;6.35;2.40;;;13.80;99.90;;;;;;12543659;28;20119;-83
2021/08/03 02:44:27;;;;;;;8.20;2.90;;;13.60;99.90;;;;;;12533761;28;20062;-85
2021/08/03 02:50:30;;;;;;;12.75;3.05;;;13.40;99.90;;;;;;12519580;28;20523;-86
2021/08/03 02:56:33;;;;;;;8.30;3.25;;;13.30;99.90;;;;;;12523681;28;20052;-85
2021/08/03 03:02:37;;;;;;;5.75;3.40;;;13.20;99.90;;;;;;12517049;28;20097;-86
2021/08/03 03:08:43;;;;;;;6.70;4.00;;;13.20;99.90;;;;;;12532429;28;20122;-85
2021/08/03 03:14:47;;;;;;;8.73;4.28;;;13.20;99.90;;;;;;12516274;28;20439;-85
2021/08/03 03:20:50;;;;;;;8.95;4.68;;;13.10;99.90;;;;;;12511564;28;20045;-86
2021/08/03 03:26:53;;;;;;;11.27;5.30;;;13.30;99.90;;;;;;12462741;28;20061;-86
2021/08/03 03:33:02;;;;;;;7.68;4.85;;;13.30;99.90;;;;;;12478156;28;20049;-85
2021/08/03 03:39:07;;;;;;;8.55;5.93;;;13.10;99.90;;;;;;12475863;28;20068;-86
2021/08/03 03:45:10;;;;;;;10.75;6.30;;;12.70;99.90;;;;;;12470036;28;20050;-86
2021/08/03 03:51:17;;;;;;;12.10;7.50;;;12.90;99.90;;;;;;12461275;28;20068;-85
2021/08/03 03:57:21;;;;;;;14.70;8.20;;;13.10;99.90;;;;;;12469813;28;20103;-85
2021/08/03 04:03:25;;;;;;;14.53;9.33;;;12.70;99.90;;;;;;12459464;28;20109;-85
2021/08/03 04:09:27;;;;;;;13.60;9.35;;;12.60;99.90;;;;;;12470014;28;20061;-86
2021/08/03 04:15:32;;;;;;;15.90;9.68;;;12.80;99.90;;;;;;12459451;28;20049;-86
2021/08/03 04:21:34;;;;;;;11.20;7.45;;;12.90;99.90;;;;;;12488029;28;20527;-85
2021/08/03 04:27:36;;;;;;;14.30;7.35;;;13.10;99.90;;;;;;12506011;28;20045;-86
2021/08/03 04:33:38;;;;;;;8.98;6.50;;;13.20;99.90;;;;;;12522195;28;20037;-86
2021/08/03 04:39:40;;;;;;;12.38;7.57;;;13.30;99.90;;;;;;12501460;28;20054;-86
2021/08/03 04:45:42;;;;;;;11.48;7.35;;;13.50;99.90;;;;;;12512570;28;20041;-85
2021/08/03 04:51:43;;;;;;;11.98;8.52;;;13.60;99.90;;;;;;12503659;28;20057;-86
2021/08/03 04:57:45;;;;;;;11.77;8.15;;;13.50;99.90;;;;;;12510311;28;20049;-86
2021/08/03 05:03:47;;;;;;;15.90;9.80;;;13.50;99.90;;;;;;12499018;28;20559;-86
2021/08/03 05:09:49;;;;;;;19.38;9.57;;;13.90;99.90;;;;;;12504034;28;20060;-86
2021/08/03 05:15:51;;;;;;;14.65;9.38;;;13.60;99.90;;;;;;12501907;28;20063;-86
2021/08/03 05:21:53;;;;;;;13.10;9.10;;;13.40;99.90;;;;;;12523095;28;20070;-86
2021/08/03 05:27:54;;;;;;;15.57;8.10;;;13.80;99.90;;;;;;12508124;28;20045;-86
2021/08/03 05:33:56;;;;;;;10.65;7.82;;;14.40;99.90;;;;;;12506989;28;20394;-86
2021/08/03 05:39:59;;;;;;;15.55;8.75;;;14.30;99.90;;;;;;12517974;28;20124;-86
2021/08/03 05:46:02;;;;;;;14.43;9.43;;;14.20;99.90;;;;;;12520760;28;20669;-86
2021/08/03 05:52:04;;;;;;;16.17;11.43;;;14.40;99.90;;;;;;12493986;28;20336;-86
2021/08/03 05:58:06;;;;;;;17.65;13.25;;;14.50;99.90;;;;;;12516201;28;20041;-86
2021/08/03 06:04:07;;;;;;;19.92;14.05;;;14.20;99.90;;;;;;12510758;28;20045;-86
2021/08/03 06:10:14;;;;;;;20.45;13.85;;;15.00;99.90;;;;;;12505321;28;20153;-86
2021/08/03 06:16:19;;;;;;;20.40;15.27;;;14.90;99.90;;;;;;12516231;28;20102;-86
2021/08/03 06:22:21;;;;;;;17.63;15.07;;;14.50;99.90;;;;;;12499371;28;20087;-86
2021/08/03 06:28:24;;;;;;;21.38;15.88;;;14.70;99.90;;;;;;12509713;28;20054;-86
2021/08/03 06:34:26;;;;;;;24.05;15.48;;;14.80;99.90;;;;;;12501257;28;20049;-86
2021/08/03 06:40:32;;;;;;;25.55;18.63;;;14.90;99.90;;;;;;12507570;28;20132;-86
2021/08/03 06:46:35;;;;;;;22.02;18.40;;;14.90;99.90;;;;;;12522961;28;20460;-86
2021/08/03 06:52:37;;;;;;;23.43;17.70;;;15.10;99.90;;;;;;12531628;28;20083;-86
2021/08/03 06:58:56;;;;;;;25.48;18.05;;;15.50;99.90;;;;;;12549788;28;20382;-86
2021/08/03 07:05:01;;;;;;;22.02;17.88;;;14.90;99.90;;;;;;12528895;28;20040;-86
2021/08/03 07:11:03;;;;;;;22.70;18.27;;;15.40;99.90;;;;;;12520451;28;20155;-86
2021/08/03 07:17:06;;;;;;;25.55;19.83;;;15.70;99.90;;;;;;12519014;28;20122;-86
2021/08/03 07:23:10;;;;;;;23.92;18.13;;;15.70;99.90;;;;;;12518281;28;20041;-86
2021/08/03 07:29:12;;;;;;;20.05;17.73;;;15.50;99.90;;;;;;12534160;28;20463;-86
2021/08/03 07:35:14;;;;;;;19.38;14.25;;;16.40;99.90;;;;;;12514162;28;20047;-87
2021/08/03 07:41:16;;;;;;;17.50;13.35;;;15.80;99.90;;;;;;12521791;28;20045;-86
2021/08/03 07:47:18;;;;;;;15.55;13.02;;;16.10;99.90;;;;;;12509094;28;20802;-86
2021/08/03 07:53:22;;;;;;;17.70;13.40;;;16.20;99.90;;;;;;12508940;28;20631;-86
2021/08/03 07:59:24;;;;;;;;;;;16.40;99.90;;;;;;12529678;28;20141;-86
2021/08/03 08:05:25;;;;;;;14.43;10.27;;;15.80;99.90;;;;;;12510422;28;20479;-86
2021/08/03 08:11:27;;;;;;;13.23;10.23;;;16.10;99.90;;;;;;12516293;28;20456;-86
2021/08/03 08:17:29;;;;;;;15.52;9.55;;;16.10;99.90;;;;;;12512579;28;20053;-86
2021/08/03 08:23:31;;;;;;;11.63;9.05;;;16.40;99.90;;;;;;12526475;28;20098;-86
2021/08/03 08:29:33;;;;;;;9.98;8.02;;;15.90;99.90;;;;;;12517955;28;20060;-86
2021/08/03 08:35:36;;;;;;;13.02;8.15;;;16.40;99.90;;;;;;12501505;28;20050;-86
2021/08/03 08:41:38;;;;;;;11.27;6.63;;;16.30;99.90;;;;;;12514585;28;20086;-86
2021/08/03 08:47:48;;;;;;;10.30;6.72;;;16.70;99.90;;;;;;12507559;28;20135;-86
2021/08/03 08:53:50;;;;;;;8.18;6.47;;;16.80;99.90;;;;;;12496749;28;20060;-86
2021/08/03 08:59:52;;;;;;;5.85;4.78;;;17.60;99.90;;;;;;12483243;28;20293;-86
2021/08/03 09:06:05;;;;;;;6.78;4.65;;;17.00;99.90;;;;;;12523799;28;20673;-86
2021/08/03 09:12:07;;;;;;;7.63;3.72;;;16.90;99.90;;;;;;12520615;28;20132;-86
2021/08/03 09:18:25;;;;;;;8.45;4.28;;;17.00;99.90;;;;;;12521286;28;20057;-86
2021/08/03 09:24:27;;;;;;;7.55;3.20;;;17.40;99.90;;;;;;12508899;28;20572;-86
2021/08/03 09:30:32;;;;;;;5.25;2.50;;;17.70;99.90;;;;;;12509257;28;20817;-86
2021/08/03 09:36:48;;;;;;;4.40;2.08;;;17.20;99.90;;;;;;12525645;28;20068;-86
2021/08/03 09:43:06;;;;;;;7.15;2.80;;;17.10;99.90;;;;;;12514327;28;20116;-86
2021/08/03 09:49:08;;;;;;;6.80;1.98;;;17.60;99.90;;;;;;12509443;28;20049;-87
2021/08/03 09:55:13;;;;;;;3.58;1.50;;;17.50;99.90;;;;;;12509631;28;20040;-86
2021/08/03 10:01:26;;;;;;;5.03;1.45;;;17.60;99.90;;;;;;12518288;28;20079;-87
2021/08/03 10:07:29;;;;;;;5.60;1.40;;;17.50;99.90;;;;;;12502159;28;20405;-87
2021/08/03 10:13:31;;;;;;;4.55;1.40;;;17.90;99.90;;;;;;12515340;28;20483;-87
2021/08/03 10:19:36;;;;;;;5.22;1.13;;;17.60;99.90;;;;;;12514634;28;20055;-86
2021/08/03 10:25:43;;;;;;;2.85;1.30;;;17.30;99.90;;;;;;12473985;28;20045;-87
2021/08/03 10:31:44;;;;;;;2.83;1.67;;;17.50;99.90;;;;;;12462457;28;20088;-87
2021/08/03 10:37:59;;;;;;;6.30;2.00;;;17.50;99.90;;;;;;12493695;28;20040;-87
2021/08/03 10:44:03;;;;;;;4.70;1.40;;;17.70;99.90;;;;;;12512912;28;20416;-84
2021/08/03 10:50:08;;;;;;;3.47;1.42;;;18.10;99.90;;;;;;12450401;28;20042;-87
2021/08/03 10:56:10;;;;;;;3.60;1.65;;;18.10;99.90;;;;;;12482996;28;20064;-87
2021/08/03 11:02:24;;;;;;;2.45;1.40;;;18.10;99.90;;;;;;12483707;28;20046;-87
2021/08/03 11:08:34;;;;;;;5.03;1.50;;;17.80;99.90;;;;;;12489445;28;20068;-87
2021/08/03 11:14:36;;;;;;;3.97;1.58;;;17.50;99.90;;;;;;12471400;28;20038;-87
2021/08/03 11:20:39;;;;;;;3.75;1.50;;;17.40;99.90;;;;;;12470241;28;20042;-87
2021/08/03 11:26:51;;;;;;;7.07;1.58;;;17.50;99.90;;;;;;12483079;28;20060;-87
2021/08/03 11:32:52;;;;;;;5.10;1.60;;;17.40;99.90;;;;;;12476131;28;20045;-87
2021/08/03 11:38:54;;;;;;;3.42;1.40;;;17.20;99.90;;;;;;12476614;28;20046;-87
2021/08/03 11:45:04;;;;;;;3.08;1.23;;;17.20;99.90;;;;;;12469032;28;20052;-86
2021/08/03 11:51:18;;;;;;;6.35;2.13;;;17.10;99.90;;;;;;12477837;28;20516;-87
2021/08/03 11:57:23;;;;;;;2.95;1.30;;;17.20;99.90;;;;;;12518391;28;20048;-87
2021/08/03 12:03:36;;;;;;;3.83;1.70;;;17.00;99.90;;;;;;12485728;28;20057;-86
2021/08/03 12:09:39;;;;;;;4.15;1.42;;;17.10;99.90;;;;;;12513259;28;20062;-86
2021/08/03 12:15:47;;;;;;;3.42;1.50;;;17.10;99.90;;;;;;12503837;28;20102;-86
2021/08/03 12:21:50;;;;;;;3.00;2.03;;;17.40;99.90;;;;;;12500628;28;20056;-86
2021/08/03 12:27:54;;;;;;;4.35;1.70;;;17.50;99.90;;;;;;12504938;28;20829;-87
2021/08/03 12:34:17;;;;;;;;;;;17.50;99.90;;;;;;12525547;28;20393;-87
2021/08/03 12:40:32;;;;;;;4.13;1.23;;;17.60;99.90;;;;;;12509846;28;20868;-86
2021/08/03 12:46:38;;;;;;;3.65;1.60;;;18.00;99.90;;;;;;12525561;28;21910;-86
2021/08/03 12:52:50;;;;;;;3.78;1.48;;;17.60;99.90;;;;;;12513925;28;20044;-86
2021/08/03 12:58:52;;;;;;;4.22;1.45;;;17.70;99.90;;;;;;12511879;28;20080;-86
2021/08/03 13:04:54;;;;;;;4.53;1.83;;;17.40;99.90;;;;;;12496973;28;20042;-87
2021/08/03 13:10:56;;;;;;;5.05;1.90;;;17.40;99.90;;;;;;12519909;28;20119;-87
2021/08/03 13:16:58;;;;;;;4.63;1.90;;;17.40;99.90;;;;;;12524235;28;20110;-86
2021/08/03 13:23:00;;;;;;;3.35;1.55;;;17.60;99.90;;;;;;12505835;28;20268;-87
2021/08/03 13:29:04;;;;;;;5.93;1.90;;;17.80;99.90;;;;;;12524538;28;20052;-87
2021/08/03 13:35:06;;;;;;;4.28;2.00;;;17.80;99.90;;;;;;12505863;28;20510;-86
2021/08/03 13:41:08;;;;;;;4.43;2.00;;;17.60;99.90;;;;;;12502471;28;20164;-87
2021/08/03 13:47:10;;;;;;;2.83;1.65;;;17.40;99.90;;;;;;12500797;28;20079;-86
2021/08/03 13:53:12;;;;;;;4.50;2.15;;;18.00;99.90;;;;;;12492021;28;20056;-86
2021/08/03 13:59:14;;;;;;;6.28;2.17;;;18.20;99.90;;;;;;12520092;28;20186;-86
2021/08/03 14:05:16;;;;;;;6.18;2.53;;;18.20;99.90;;;;;;12498065;28;20041;-86
2021/08/03 14:11:18;;;;;;;4.25;1.92;;;18.50;99.90;;;;;;12504447;28;20098;-86
2021/08/03 14:17:20;;;;;;;4.60;2.10;;;18.60;99.90;;;;;;12505149;28;20052;-87
2021/08/03 14:23:22;;;;;;;5.18;1.90;;;18.60;99.90;;;;;;12512414;28;20135;-87
2021/08/03 14:29:24;;;;;;;4.80;1.92;;;18.70;99.90;;;;;;12519292;28;20598;-87
2021/08/03 14:35:26;;;;;;;2.13;1.63;;;18.30;99.90;;;;;;12499112;28;20065;-87
2021/08/03 14:41:28;;;;;;;3.35;1.95;;;18.50;99.90;;;;;;12510553;28;20196;-86
2021/08/03 14:47:30;;;;;;;6.53;1.90;;;18.30;99.90;;;;;;12517091;28;20057;-87
2021/08/03 14:53:34;;;;;;;3.38;1.50;;;18.40;99.90;;;;;;12502666;28;20597;-87
2021/08/03 14:59:36;;;;;;;5.15;2.00;;;18.10;99.90;;;;;;12501434;28;20106;-86
2021/08/03 15:05:38;;;;;;;5.97;2.40;;;18.00;99.90;;;;;;12514580;28;20454;-87
2021/08/03 15:11:40;;;;;;;4.70;1.73;;;18.00;99.90;;;;;;12496707;28;20076;-86
2021/08/03 15:17:42;;;;;;;2.55;1.33;;;18.00;99.90;;;;;;12493935;28;20110;-86
2021/08/03 15:23:44;;;;;;;3.30;1.40;;;17.90;99.90;;;;;;12510254;28;20490;-87
2021/08/03 15:29:46;;;;;;;3.92;1.65;;;17.90;99.90;;;;;;12508824;28;20447;-86
2021/08/03 15:35:48;;;;;;;4.50;1.58;;;18.00;99.90;;;;;;12516807;28;20072;-86
2021/08/03 15:41:50;;;;;;;3.13;1.60;;;17.60;99.90;;;;;;12516757;28;20556;-86
2021/08/03 15:47:52;;;;;;;5.60;2.10;;;17.70;99.90;;;;;;12531849;28;20115;-87
2021/08/03 15:53:54;;;;;;;2.75;1.45;;;17.90;99.90;;;;;;12510627;28;20185;-86
2021/08/03 15:59:56;;;;;;;3.65;1.55;;;17.90;99.90;;;;;;12507911;28;20529;-86
2021/08/03 16:05:58;;;;;;;4.30;1.60;;;18.30;99.90;;;;;;12524788;28;20124;-87
2021/08/03 16:11:59;;;;;;;6.05;1.85;;;18.10;99.90;;;;;;12522668;28;20113;-86
2021/08/03 16:18:07;;;;;;;7.03;1.77;;;18.00;99.90;;;;;;12501339;28;20128;-87
2021/08/03 16:24:10;;;;;;;2.30;1.25;;;18.10;99.90;;;;;;12499397;28;20105;-87
2021/08/03 16:30:12;;;;;;;4.82;1.50;;;18.10;99.90;;;;;;12507655;28;20441;-86
2021/08/03 16:36:18;;;;;;;3.78;2.33;;;18.00;99.90;;;;;;12501238;28;20041;-86
2021/08/03 16:42:20;;;;;;;5.28;2.10;;;17.90;99.90;;;;;;12510805;28;20462;-86
2021/08/03 16:48:28;;;;;;;3.50;1.75;;;17.80;99.90;;;;;;12498424;28;20064;-86
2021/08/03 16:54:30;;;;;;;3.83;1.70;;;17.70;99.90;;;;;;12502126;28;20112;-86
2021/08/03 17:00:32;;;;;;;5.75;1.85;;;17.60;99.90;;;;;;12495106;28;20400;-86
2021/08/03 17:06:34;;;;;;;4.22;1.77;;;17.50;99.90;;;;;;12507843;28;20056;-86
2021/08/03 17:12:59;;;;;;;5.43;1.70;;;17.40;99.90;;;;;;12520899;28;20408;-86
2021/08/03 17:19:03;;;;;;;3.83;1.70;;;17.30;99.90;;;;;;12511201;28;20071;-86
2021/08/03 17:25:16;;;;;;;6.35;1.60;;;17.20;99.90;;;;;;12504510;28;20124;-86
2021/08/03 17:31:19;;;;;;;4.55;1.98;;;17.20;99.90;;;;;;12490298;28;20550;-86
2021/08/03 17:37:21;;;;;;;4.38;1.75;;;17.30;99.90;;;;;;12504628;28;20052;-86
2021/08/03 17:43:23;;;;;;;6.78;1.88;;;17.20;99.90;;;;;;12499039;28;20076;-86
2021/08/03 17:49:27;;;;;;;3.83;1.55;;;17.10;99.90;;;;;;12498545;28;20089;-86
2021/08/03 17:55:29;;;;;;;5.03;1.88;;;17.40;99.90;;;;;;12507026;28;20266;-86
2021/08/03 18:01:31;;;;;;;4.20;1.77;;;16.90;99.90;;;;;;12494724;28;20696;-86
2021/08/03 18:07:34;;;;;;;3.83;1.60;;;17.40;99.90;;;;;;12503418;28;20110;-87
2021/08/03 18:13:38;;;;;;;2.53;1.42;;;17.30;99.90;;;;;;12546124;28;20041;-86
2021/08/03 18:19:40;;;;;;;;;;;16.90;99.90;;;;;;12494632;28;20060;-86
2021/08/03 18:25:56;;;;;;;3.08;1.50;;;16.90;99.90;;;;;;12496171;28;19921;-86
2021/08/03 18:31:59;;;;;;;4.90;1.85;;;17.00;99.90;;;;;;12523614;28;20073;-87
2021/08/03 18:38:03;;;;;;;3.97;1.77;;;17.00;99.90;;;;;;12532660;28;21517;-87
2021/08/03 18:44:10;;;;;;;;;;;17.10;99.90;;;;;;12553381;28;20087;-87
2021/08/03 18:50:12;;;;;;;5.40;1.90;;;16.90;99.90;;;;;;12546346;28;19932;-87
2021/08/03 18:56:15;;;;;;;4.82;2.00;;;16.70;99.90;;;;;;12550787;28;20185;-86
2021/08/03 19:02:18;;;;;;;2.80;1.80;;;16.70;99.90;;;;;;12564015;28;20053;-87
2021/08/03 19:08:25;;;;;;;3.20;1.90;;;16.70;99.90;;;;;;12563238;28;20930;-87
2021/08/03 19:14:43;;;;;;;3.88;2.17;;;17.00;99.90;;;;;;12579019;28;20041;-87
2021/08/03 19:20:47;;;;;;;2.97;2.00;;;16.60;99.90;;;;;;12555802;28;20044;-87
2021/08/03 19:26:51;;;;;;;2.90;2.03;;;16.50;99.90;;;;;;12547215;28;20060;-86
2021/08/03 19:32:54;;;;;;;;;;;16.30;99.90;;;;;;12553170;28;20320;-86
2021/08/03 19:38:56;;;;;;;5.15;2.13;;;16.30;99.90;;;;;;12530527;28;19932;-86
2021/08/03 19:44:58;;;;;;;5.28;2.00;;;16.10;99.90;;;;;;12531469;28;20450;-86
2021/08/03 19:51:01;;;;;;;3.05;1.80;;;16.10;99.90;;;;;;12530493;28;20064;-86
2021/08/03 19:57:03;;;;;;;4.07;1.95;;;16.10;99.90;;;;;;12523212;28;20107;-86
2021/08/03 20:03:06;;;;;;;4.03;1.85;;;16.20;99.90;;;;;;12530818;28;20049;-86
2021/08/03 20:09:11;;;;;;;4.10;1.80;;;16.20;99.90;;;;;;12513035;28;20057;-86
2021/08/03 20:15:14;;;;;;;4.40;2.05;;;16.30;99.90;;;;;;12535185;28;20088;-86
2021/08/03 20:21:16;;;;;;;4.05;1.67;;;16.30;99.90;;;;;;12513188;28;20045;-86
2021/08/03 20:27:28;;;;;;;5.00;1.75;;;16.20;99.90;;;;;;12506608;28;20067;-86
2021/08/03 20:33:37;;;;;;;4.00;2.10;;;16.40;99.90;;;;;;12516875;28;20856;-86
2021/08/03 20:40:07;;;;;;;5.43;2.95;;;16.20;99.90;;;;;;12531982;28;20091;-86
2021/08/03 20:46:09;;;;;;;3.80;2.45;;;16.30;99.90;;;;;;12542866;28;20052;-86
2021/08/03 20:52:12;;;;;;;7.88;2.50;;;16.20;99.90;;;;;;12530257;28;20045;-86
2021/08/03 20:58:14;;;;;;;3.22;2.08;;;16.00;99.90;;;;;;12497677;28;20503;-86
2021/08/03 21:04:19;;;;;;;3.58;2.30;;;15.80;99.90;;;;;;12516469;28;20076;-87
2021/08/03 21:10:26;;;;;;;7.78;2.60;;;15.70;99.90;;;;;;12528721;28;20049;-87
2021/08/03 21:16:32;;;;;;;3.60;2.33;;;15.60;99.90;;;;;;12530653;28;20060;-87
2021/08/03 21:22:34;;;;;;;4.30;2.70;;;15.50;99.90;;;;;;12531170;28;20069;-87
2021/08/03 21:28:36;;;;;;;6.45;2.85;;;15.50;99.90;;;;;;12516361;28;20095;-86
2021/08/03 21:34:38;;;;;;;4.80;2.80;;;15.50;99.90;;;;;;12519953;28;20104;-86
2021/08/03 21:40:40;;;;;;;4.47;2.50;;;15.50;99.90;;;;;;12522833;28;20080;-86
2021/08/03 21:46:42;;;;;;;5.60;2.30;;;15.40;99.90;;;;;;12520304;28;20061;-85
2021/08/03 21:52:43;;;;;;;3.75;2.05;;;15.60;99.90;;;;;;12511383;28;20049;-86
2021/08/03 21:58:46;;;;;;;4.68;2.30;;;15.60;99.90;;;;;;12527767;28;20061;-86
2021/08/03 22:04:48;;;;;;;6.82;2.53;;;15.50;99.90;;;;;;12511903;28;20064;-86
2021/08/03 22:10:51;;;;;;;4.07;2.25;;;15.50;99.90;;;;;;12518883;28;20074;-86
2021/08/03 22:16:53;;;;;;;3.75;2.13;;;15.50;99.90;;;;;;12521340;28;20083;-86
2021/08/03 22:22:54;;;;;;;5.78;2.40;;;15.50;99.90;;;;;;12534700;28;20079;-86
2021/08/03 22:28:56;;;;;;;3.72;2.20;;;15.50;99.90;;;;;;12526844;28;20048;-86
2021/08/03 22:34:58;;;;;;;3.90;2.20;;;15.50;99.90;;;;;;12571109;28;20055;-85
2021/08/03 22:41:00;;;;;;;3.88;2.38;;;15.50;99.90;;;;;;12535346;28;20048;-86
2021/08/03 22:47:02;;;;;;;5.43;2.15;;;15.60;99.90;;;;;;12536242;28;20048;-86
2021/08/03 22:53:04;;;;;;;6.07;2.22;;;15.60;99.90;;;;;;12537499;28;20083;-86
2021/08/03 22:59:06;;;;;;;3.50;2.00;;;15.60;99.90;;;;;;12522105;28;20084;-87
2021/08/03 23:05:08;;;;;;;6.40;2.35;;;15.50;99.90;;;;;;12521625;28;20053;-86
2021/08/03 23:11:10;;;;;;;3.47;2.35;;;15.60;99.90;;;;;;12479863;28;20167;-85
2021/08/03 23:17:12;;;;;;;5.30;2.95;;;15.60;99.90;;;;;;12481166;28;20630;-86
2021/08/03 23:23:14;;;;;;;5.85;3.30;;;15.60;99.90;;;;;;12499325;28;20077;-86
2021/08/03 23:29:15;;;;;;;7.10;3.40;;;15.50;99.90;;;;;;12481179;28;20662;-86
2021/08/03 23:35:17;;;;;;;8.05;2.50;;;15.50;99.90;;;;;;12483048;28;20281;-86
2021/08/03 23:41:19;;;;;;;4.60;2.88;;;15.50;99.90;;;;;;12480844;28;20443;-86
2021/08/03 23:47:21;;;;;;;4.85;2.40;;;15.50;99.90;;;;;;12484057;28;20048;-86
2021/08/03 23:53:23;;;;;;;5.22;2.70;;;15.50;99.90;;;;;;12492044;28;20141;-85
2021/08/03 23:59:25;;;;;;;4.63;3.13;;;15.60;99.90;;;;;;12481037;28;20516;-86
